Time;durP1;ratioP1;P1;durP2;ratioP2;P2;SDS_P1;SDS_P2;PMS_P1;PMS_P2;Temp;Humidity;BMP_temperature;BMP_pressure;BME280_temperature;BME280_humidity;BME280_pressure;Samples;Min_cycle;Max_cycle;Signal;HPM_P1;HPM_P2
2023/04/12 00:01:52;;;;;;;4.10;1.30;;;10.30;99.90;;;;;;5061593;28;20369;-80
2023/04/12 00:04:21;;;;;;;4.47;1.00;;;10.20;99.90;;;;;;5059100;28;20521;-81
2023/04/12 00:06:47;;;;;;;3.70;1.27;;;10.30;99.90;;;;;;5058903;28;20233;-80
2023/04/12 00:09:13;;;;;;;6.30;1.17;;;10.20;99.90;;;;;;5060704;28;20167;-80
2023/04/12 00:11:38;;;;;;;4.73;1.40;;;10.20;99.90;;;;;;5060657;28;20184;-81
2023/04/12 00:14:04;;;;;;;8.97;1.90;;;10.20;99.90;;;;;;5058996;28;20202;-80
2023/04/12 00:16:30;;;;;;;5.80;1.43;;;10.20;99.90;;;;;;5060232;28;20179;-81
2023/04/12 00:18:56;;;;;;;3.90;1.53;;;10.10;99.90;;;;;;5060360;28;20255;-81
2023/04/12 00:21:22;;;;;;;4.87;1.80;;;10.10;99.90;;;;;;5061053;28;20552;-80
2023/04/12 00:23:48;;;;;;;7.30;1.83;;;10.00;99.90;;;;;;5059418;28;20202;-81
2023/04/12 00:26:14;;;;;;;5.97;1.43;;;10.00;99.90;;;;;;5060845;28;20199;-81
2023/04/12 00:28:41;;;;;;;11.33;1.80;;;9.90;99.90;;;;;;5058784;28;20225;-80
2023/04/12 00:31:07;;;;;;;2.63;1.23;;;9.90;99.90;;;;;;5060700;28;20183;-80
2023/04/12 00:33:33;;;;;;;5.70;1.53;;;9.80;99.90;;;;;;5059096;28;20200;-81
2023/04/12 00:35:58;;;;;;;4.07;1.50;;;9.80;99.90;;;;;;5060911;28;20543;-81
2023/04/12 00:38:24;;;;;;;5.77;1.43;;;9.80;99.90;;;;;;5060708;28;20223;-81
2023/04/12 00:40:49;;;;;;;6.40;1.27;;;9.80;99.90;;;;;;5058161;28;20174;-81
2023/04/12 00:43:17;;;;;;;5.77;1.63;;;9.80;99.90;;;;;;5058248;28;20191;-81
2023/04/12 00:45:43;;;;;;;6.43;1.70;;;9.70;99.90;;;;;;5060302;28;20179;-81
2023/04/12 00:48:09;;;;;;;5.83;1.60;;;9.70;99.90;;;;;;5059121;28;20697;-81
2023/04/12 00:50:35;;;;;;;7.77;2.10;;;9.70;99.90;;;;;;5059264;28;20231;-81
2023/04/12 00:53:02;;;;;;;4.13;1.40;;;9.60;99.90;;;;;;5059354;28;20222;-81
2023/04/12 00:55:28;;;;;;;4.80;1.30;;;9.60;99.90;;;;;;5057378;28;20190;-81
2023/04/12 00:57:54;;;;;;;7.80;2.03;;;9.60;99.90;;;;;;5059219;28;20254;-81
2023/04/12 01:00:19;;;;;;;5.23;2.03;;;9.50;99.90;;;;;;5059600;28;20203;-81
2023/04/12 01:02:49;;;;;;;4.23;1.47;;;9.50;99.90;;;;;;5057454;28;20234;-80
2023/04/12 01:05:20;;;;;;;4.00;1.50;;;9.50;99.90;;;;;;5059689;28;20638;-80
2023/04/12 01:08:04;;;;;;;8.90;1.73;;;9.50;99.90;;;;;;5058966;28;20655;-81
2023/04/12 01:11:00;;;;;;;2.83;1.20;;;9.50;99.90;;;;;;5058971;28;20165;-81
2023/04/12 01:13:34;;;;;;;4.77;1.80;;;9.40;99.90;;;;;;5056529;28;20686;-81
2023/04/12 01:16:13;;;;;;;7.10;1.63;;;9.40;99.90;;;;;;5058000;28;20253;-81
2023/04/12 01:18:44;;;;;;;8.27;1.33;;;9.40;99.90;;;;;;5057274;28;20278;-80
2023/04/12 01:21:15;;;;;;;7.03;1.70;;;9.40;99.90;;;;;;5059065;28;20675;-81
2023/04/12 01:24:12;;;;;;;6.57;1.80;;;9.40;99.90;;;;;;5056536;28;20688;-81
2023/04/12 01:26:43;;;;;;;12.17;2.20;;;9.40;99.90;;;;;;5058047;28;20734;-80
2023/04/12 01:29:12;;;;;;;6.70;1.67;;;9.40;99.90;;;;;;5058424;28;20163;-81
2023/04/12 01:31:48;;;;;;;6.30;1.80;;;9.30;99.90;;;;;;5058428;28;20701;-81
2023/04/12 01:34:15;;;;;;;4.73;1.67;;;9.40;99.90;;;;;;5058096;28;20187;-82
2023/04/12 01:36:43;;;;;;;4.03;1.50;;;9.30;99.90;;;;;;5058386;28;20194;-82
2023/04/12 01:39:09;;;;;;;8.63;1.67;;;9.30;99.90;;;;;;5058390;28;20534;-81
2023/04/12 01:41:44;;;;;;;4.63;1.40;;;9.30;99.90;;;;;;5056424;28;20243;-81
2023/04/12 01:44:12;;;;;;;4.33;1.33;;;9.30;99.90;;;;;;5057029;28;20195;-81
2023/04/12 01:46:38;;;;;;;3.47;1.63;;;9.20;99.90;;;;;;5056897;28;20224;-82
2023/04/12 01:49:04;;;;;;;2.57;1.20;;;9.30;99.90;;;;;;5058841;28;20191;-81
2023/04/12 01:51:48;;;;;;;4.63;1.40;;;9.20;99.90;;;;;;5058466;28;20662;-81
2023/04/12 01:54:21;;;;;;;8.23;2.23;;;9.20;99.90;;;;;;5058380;28;20188;-81
2023/04/12 01:56:51;;;;;;;6.97;1.63;;;9.20;99.90;;;;;;5058988;28;20172;-81
2023/04/12 01:59:18;;;;;;;5.83;1.73;;;9.20;99.90;;;;;;5056222;28;20651;-78
2023/04/12 02:01:45;;;;;;;6.83;1.50;;;9.10;99.90;;;;;;5057068;28;20179;-79
2023/04/12 02:04:11;;;;;;;4.07;1.60;;;9.10;99.90;;;;;;5056991;28;20270;-78
2023/04/12 02:06:38;;;;;;;7.07;1.53;;;9.00;99.90;;;;;;5058521;28;20765;-81
2023/04/12 02:09:05;;;;;;;4.30;2.13;;;9.00;99.90;;;;;;5057308;28;20207;-79
2023/04/12 02:11:30;;;;;;;6.30;1.73;;;9.10;99.90;;;;;;5058815;28;20599;-79
2023/04/12 02:13:56;;;;;;;3.60;1.50;;;9.00;99.90;;;;;;5058991;28;20199;-80
2023/04/12 02:16:22;;;;;;;6.73;1.50;;;9.00;99.90;;;;;;5059089;28;20554;-79
2023/04/12 02:18:51;;;;;;;3.53;1.43;;;9.00;99.90;;;;;;5059546;28;20175;-80
2023/04/12 02:21:17;;;;;;;3.97;1.23;;;8.90;99.90;;;;;;5059472;28;20183;-79
2023/04/12 02:23:43;;;;;;;3.50;1.30;;;8.90;99.90;;;;;;5058673;28;20188;-80
2023/04/12 02:26:10;;;;;;;6.67;1.70;;;8.90;99.90;;;;;;5060819;28;20176;-79
2023/04/12 02:28:37;;;;;;;5.30;1.40;;;8.90;99.90;;;;;;5063597;28;20219;-79
2023/04/12 02:31:03;;;;;;;3.87;1.33;;;8.90;99.90;;;;;;5069932;28;20170;-79
2023/04/12 02:33:29;;;;;;;3.23;1.23;;;8.90;99.90;;;;;;5077903;28;20188;-79
2023/04/12 02:35:56;;;;;;;6.37;1.70;;;8.80;99.90;;;;;;5076033;28;20183;-79
2023/04/12 02:38:22;;;;;;;4.17;1.50;;;8.80;99.90;;;;;;5059718;28;20249;-80
2023/04/12 02:40:47;;;;;;;5.10;1.57;;;8.80;99.90;;;;;;5061598;28;20194;-79
2023/04/12 02:43:13;;;;;;;3.73;1.50;;;8.80;99.90;;;;;;5060181;28;20593;-79
2023/04/12 02:45:38;;;;;;;3.73;1.53;;;8.80;99.90;;;;;;5061153;28;20184;-80
2023/04/12 02:48:04;;;;;;;5.23;1.70;;;8.80;99.90;;;;;;5060082;28;20204;-80
2023/04/12 02:50:30;;;;;;;4.33;1.80;;;8.80;99.90;;;;;;5060072;28;20182;-80
2023/04/12 02:52:55;;;;;;;5.80;1.47;;;8.80;99.90;;;;;;5061163;28;20329;-79
2023/04/12 02:55:21;;;;;;;5.50;1.47;;;8.80;99.90;;;;;;5061281;28;20176;-80
2023/04/12 02:57:47;;;;;;;6.23;1.30;;;8.70;99.90;;;;;;5061322;28;20179;-79
2023/04/12 03:00:16;;;;;;;2.83;1.83;;;8.70;99.90;;;;;;5060989;28;20721;-79
2023/04/12 03:02:43;;;;;;;8.27;1.53;;;8.70;99.90;;;;;;5061258;28;20195;-78
2023/04/12 03:05:09;;;;;;;4.77;1.33;;;8.70;99.90;;;;;;5061177;28;20176;-79
2023/04/12 03:07:35;;;;;;;5.73;1.67;;;8.70;99.90;;;;;;5060131;28;20207;-79
2023/04/12 03:10:01;;;;;;;4.00;1.40;;;8.70;99.90;;;;;;5061355;28;20590;-79
2023/04/12 03:12:27;;;;;;;5.30;1.23;;;8.60;99.90;;;;;;5061005;28;20216;-79
2023/04/12 03:14:53;;;;;;;3.37;1.27;;;8.60;99.90;;;;;;5061286;28;20517;-80
2023/04/12 03:17:18;;;;;;;6.07;2.17;;;8.60;99.90;;;;;;5061366;28;20183;-79
2023/04/12 03:19:45;;;;;;;5.10;1.20;;;8.60;99.90;;;;;;5061752;28;20202;-79
2023/04/12 03:22:10;;;;;;;3.60;1.30;;;8.60;99.90;;;;;;5059671;28;20175;-78
2023/04/12 03:24:36;;;;;;;6.57;1.43;;;8.60;99.90;;;;;;5059932;28;20186;-79
2023/04/12 03:27:02;;;;;;;5.63;1.20;;;8.60;99.90;;;;;;5061115;28;20570;-80
2023/04/12 03:29:31;;;;;;;4.00;1.10;;;8.60;99.90;;;;;;5059356;28;20172;-79
2023/04/12 03:31:58;;;;;;;1.70;1.00;;;8.60;99.90;;;;;;5060879;28;20198;-80
2023/04/12 03:34:26;;;;;;;3.50;1.33;;;8.50;99.90;;;;;;5060276;28;20178;-79
2023/04/12 03:36:52;;;;;;;2.73;1.07;;;8.50;99.90;;;;;;5058481;28;20199;-79
2023/04/12 03:39:18;;;;;;;5.17;1.40;;;8.50;99.90;;;;;;5060499;28;20168;-79
2023/04/12 03:41:43;;;;;;;5.00;1.63;;;8.50;99.90;;;;;;5059283;28;20670;-79
2023/04/12 03:44:09;;;;;;;3.13;1.60;;;8.50;99.90;;;;;;5059064;28;20200;-79
2023/04/12 03:46:35;;;;;;;2.50;1.20;;;8.50;99.90;;;;;;5060410;28;20279;-79
2023/04/12 03:49:00;;;;;;;5.83;1.20;;;8.50;99.90;;;;;;5058417;28;20547;-79
2023/04/12 03:51:29;;;;;;;3.70;1.57;;;8.50;99.90;;;;;;5058161;28;20191;-79
2023/04/12 03:53:55;;;;;;;5.70;1.40;;;8.50;99.90;;;;;;5058350;28;20701;-79
2023/04/12 03:56:20;;;;;;;5.17;1.47;;;8.50;99.90;;;;;;5058523;28;20175;-79
2023/04/12 03:58:46;;;;;;;3.50;1.10;;;8.50;99.90;;;;;;5059064;28;20229;-79
2023/04/12 04:01:14;;;;;;;2.97;1.30;;;8.50;99.90;;;;;;5060015;28;20171;-79
2023/04/12 04:03:40;;;;;;;2.33;1.10;;;8.50;99.90;;;;;;5060127;28;20187;-80
2023/04/12 04:06:06;;;;;;;4.43;1.10;;;8.50;99.90;;;;;;5059884;28;20167;-79
2023/04/12 04:08:32;;;;;;;2.87;1.30;;;8.50;99.90;;;;;;5058118;28;20230;-79
2023/04/12 04:10:59;;;;;;;5.27;1.40;;;8.50;99.90;;;;;;5057381;28;20763;-79
2023/04/12 04:13:25;;;;;;;4.70;1.20;;;8.50;99.90;;;;;;5059417;28;20239;-80
2023/04/12 04:15:57;;;;;;;3.27;1.10;;;8.50;99.90;;;;;;5058449;28;20175;-78
2023/04/12 04:18:23;;;;;;;2.70;1.27;;;8.50;99.90;;;;;;5058212;28;20189;-79
2023/04/12 04:20:48;;;;;;;5.57;1.30;;;8.50;99.90;;;;;;5058105;28;20235;-79
2023/04/12 04:23:14;;;;;;;2.50;1.20;;;8.50;99.90;;;;;;5060172;28;20621;-79
2023/04/12 04:25:40;;;;;;;4.53;1.13;;;8.40;99.90;;;;;;5059533;28;20179;-79
2023/04/12 04:28:06;;;;;;;4.00;1.17;;;8.50;99.90;;;;;;5058112;28;20579;-79
2023/04/12 04:30:37;;;;;;;2.43;0.90;;;8.50;99.90;;;;;;5057833;28;20675;-78
2023/04/12 04:33:03;;;;;;;5.80;0.80;;;8.50;99.90;;;;;;5057889;28;20572;-79
2023/04/12 04:35:30;;;;;;;4.87;1.47;;;8.50;99.90;;;;;;5057841;28;20205;-79
2023/04/12 04:37:56;;;;;;;3.53;1.00;;;8.50;99.90;;;;;;5057551;28;20183;-79
2023/04/12 04:40:22;;;;;;;5.17;1.30;;;8.50;99.90;;;;;;5058619;28;20176;-80
2023/04/12 04:42:53;;;;;;;2.33;0.90;;;8.50;99.90;;;;;;5059173;28;20225;-79
2023/04/12 04:45:20;;;;;;;4.57;1.23;;;8.50;99.90;;;;;;5057276;28;20159;-79
2023/04/12 04:47:46;;;;;;;2.87;1.27;;;8.50;99.90;;;;;;5058660;28;20196;-79
2023/04/12 04:50:12;;;;;;;1.60;1.00;;;8.50;99.90;;;;;;5058629;28;20174;-80
2023/04/12 04:52:38;;;;;;;2.80;1.20;;;8.50;99.90;;;;;;5059062;28;20195;-80
2023/04/12 04:55:04;;;;;;;1.57;0.90;;;8.50;99.90;;;;;;5057178;28;20233;-79
2023/04/12 04:57:29;;;;;;;2.70;1.30;;;8.50;99.90;;;;;;5057454;28;20198;-79
2023/04/12 04:59:55;;;;;;;2.00;0.93;;;8.50;99.90;;;;;;5058503;28;20182;-80
2023/04/12 05:02:21;;;;;;;3.13;1.03;;;8.50;99.90;;;;;;5058548;28;20191;-79
2023/04/12 05:04:46;;;;;;;1.93;1.20;;;8.50;99.90;;;;;;5059794;28;20175;-79
2023/04/12 05:07:13;;;;;;;3.07;1.13;;;8.50;99.90;;;;;;5059144;28;20336;-78
2023/04/12 05:09:38;;;;;;;3.67;1.30;;;8.50;99.90;;;;;;5057832;28;20172;-80
2023/04/12 05:12:04;;;;;;;3.63;1.27;;;8.50;99.90;;;;;;5057278;28;20663;-80
2023/04/12 05:14:30;;;;;;;2.83;1.10;;;8.50;99.90;;;;;;5059153;28;20168;-79
2023/04/12 05:16:56;;;;;;;3.27;1.30;;;8.50;99.90;;;;;;5059513;28;20590;-79
2023/04/12 05:19:21;;;;;;;2.47;1.10;;;8.50;99.90;;;;;;5058422;28;20512;-79
2023/04/12 05:21:46;;;;;;;6.00;1.50;;;8.50;99.90;;;;;;5057417;28;20251;-80
2023/04/12 05:24:12;;;;;;;3.73;1.20;;;8.40;99.90;;;;;;5057165;28;20545;-79
2023/04/12 05:26:37;;;;;;;2.13;1.07;;;8.50;99.90;;;;;;5058533;28;20180;-79
2023/04/12 05:29:05;;;;;;;3.47;1.50;;;8.40;99.90;;;;;;5059179;28;20240;-78
2023/04/12 05:31:31;;;;;;;1.80;1.10;;;8.40;99.90;;;;;;5059181;28;20164;-79
2023/04/12 05:33:56;;;;;;;3.37;1.50;;;8.40;99.90;;;;;;5057624;28;20199;-79
2023/04/12 05:36:22;;;;;;;4.30;1.30;;;8.40;99.90;;;;;;5057992;28;20239;-80
2023/04/12 05:38:47;;;;;;;3.17;1.50;;;8.40;99.90;;;;;;5058442;28;20635;-79
2023/04/12 05:41:13;;;;;;;3.20;1.30;;;8.40;99.90;;;;;;5059714;28;20233;-79
2023/04/12 05:43:38;;;;;;;1.93;1.53;;;8.40;99.90;;;;;;5059681;28;20200;-79
2023/04/12 05:46:06;;;;;;;6.10;1.77;;;8.40;99.90;;;;;;5059304;28;20203;-79
2023/04/12 05:48:32;;;;;;;2.33;1.40;;;8.40;99.90;;;;;;5058737;28;20564;-79
2023/04/12 05:50:57;;;;;;;3.17;1.43;;;8.40;99.90;;;;;;5067930;28;20172;-79
2023/04/12 05:53:23;;;;;;;3.70;1.10;;;8.40;99.90;;;;;;5072010;28;20285;-79
2023/04/12 05:55:50;;;;;;;3.07;1.30;;;8.40;99.90;;;;;;5064634;28;20174;-79
2023/04/12 05:58:16;;;;;;;2.13;1.33;;;8.40;99.90;;;;;;5058434;28;20221;-80
2023/04/12 06:00:41;;;;;;;5.87;1.43;;;8.40;99.90;;;;;;5059451;28;20183;-79
2023/04/12 06:03:10;;;;;;;2.90;1.47;;;8.40;99.90;;;;;;5062277;28;20210;-79
2023/04/12 06:05:37;;;;;;;4.23;1.57;;;8.40;99.90;;;;;;5060250;28;20190;-79
2023/04/12 06:08:04;;;;;;;4.63;1.43;;;8.40;99.90;;;;;;5061966;28;20211;-79
2023/04/12 06:10:30;;;;;;;4.73;1.70;;;8.40;99.90;;;;;;5062062;28;20213;-79
2023/04/12 06:12:55;;;;;;;2.70;1.50;;;8.40;99.90;;;;;;5062924;28;20207;-79
2023/04/12 06:15:21;;;;;;;3.53;1.67;;;8.40;99.90;;;;;;5061996;28;20171;-79
2023/04/12 06:17:46;;;;;;;5.90;1.50;;;8.50;99.90;;;;;;5062436;28;20584;-79
2023/04/12 06:20:12;;;;;;;2.20;1.50;;;8.40;99.90;;;;;;5061173;28;20183;-79
2023/04/12 06:22:38;;;;;;;5.90;2.00;;;8.50;99.90;;;;;;5060398;28;20195;-78
2023/04/12 06:25:04;;;;;;;4.13;1.53;;;8.50;99.90;;;;;;5061574;28;20183;-79
2023/04/12 06:27:30;;;;;;;3.90;1.30;;;8.50;99.90;;;;;;5061398;28;20207;-79
2023/04/12 06:29:56;;;;;;;3.13;1.50;;;8.50;99.90;;;;;;5060335;28;20182;-79
2023/04/12 06:32:21;;;;;;;2.63;1.30;;;8.50;99.90;;;;;;5061647;28;20282;-78
2023/04/12 06:34:47;;;;;;;2.23;1.30;;;8.60;99.90;;;;;;5060698;28;20175;-79
2023/04/12 06:37:12;;;;;;;2.97;1.40;;;8.60;99.90;;;;;;5061622;28;20179;-79
2023/04/12 06:39:38;;;;;;;3.07;1.60;;;8.60;99.90;;;;;;5061284;28;20179;-79
2023/04/12 06:42:03;;;;;;;4.53;1.60;;;8.60;99.90;;;;;;5059700;28;20636;-78
2023/04/12 06:44:29;;;;;;;2.43;1.40;;;8.70;99.90;;;;;;5061124;28;20187;-79
2023/04/12 06:46:54;;;;;;;2.80;1.60;;;8.60;99.90;;;;;;5061030;28;20199;-78
2023/04/12 06:49:20;;;;;;;2.00;1.37;;;8.70;99.90;;;;;;5061786;28;20211;-78
2023/04/12 06:51:46;;;;;;;3.50;1.40;;;8.70;99.90;;;;;;5061525;28;20254;-79
2023/04/12 06:54:12;;;;;;;2.50;1.60;;;8.80;99.90;;;;;;5060462;28;20188;-78
2023/04/12 06:56:38;;;;;;;1.70;1.50;;;8.70;99.90;;;;;;5060006;28;20171;-79
2023/04/12 06:59:04;;;;;;;4.00;1.23;;;8.60;99.90;;;;;;5061157;28;20542;-78
2023/04/12 07:01:29;;;;;;;5.10;1.70;;;8.70;99.90;;;;;;5059581;28;20551;-78
2023/04/12 07:03:55;;;;;;;1.60;1.43;;;8.70;99.90;;;;;;5060635;28;20199;-79
2023/04/12 07:06:21;;;;;;;2.60;1.70;;;8.70;99.90;;;;;;5058719;28;20179;-79
2023/04/12 07:08:47;;;;;;;3.73;1.43;;;8.70;99.90;;;;;;5059477;28;20207;-79
2023/04/12 07:11:12;;;;;;;4.43;1.57;;;8.80;99.90;;;;;;5058542;28;20192;-79
2023/04/12 07:13:38;;;;;;;6.13;1.20;;;8.80;99.90;;;;;;5058984;28;20191;-78
2023/04/12 07:16:04;;;;;;;2.37;1.20;;;8.80;99.90;;;;;;5060894;28;20168;-79
2023/04/12 07:18:30;;;;;;;3.10;1.50;;;8.80;99.90;;;;;;5060203;28;20179;-81
2023/04/12 07:20:57;;;;;;;2.67;1.53;;;8.90;99.90;;;;;;5060412;28;20171;-78
2023/04/12 07:23:24;;;;;;;1.50;1.13;;;8.90;99.90;;;;;;5058868;28;20576;-78
2023/04/12 07:25:50;;;;;;;2.30;1.67;;;9.00;99.90;;;;;;5058508;28;20262;-79
2023/04/12 07:28:15;;;;;;;3.07;1.07;;;9.00;99.90;;;;;;5059712;28;20249;-78
2023/04/12 07:30:41;;;;;;;3.27;1.37;;;9.00;99.90;;;;;;5058037;28;20171;-78
2023/04/12 07:33:06;;;;;;;3.13;1.40;;;9.10;99.90;;;;;;5059735;28;20730;-78
2023/04/12 07:35:32;;;;;;;2.90;1.37;;;9.10;99.90;;;;;;5057348;28;20222;-78
2023/04/12 07:37:58;;;;;;;4.07;1.50;;;9.10;99.90;;;;;;5058239;28;20172;-78
2023/04/12 07:40:24;;;;;;;2.20;1.30;;;9.20;99.90;;;;;;5061185;28;20176;-78
2023/04/12 07:42:50;;;;;;;2.57;1.40;;;9.20;99.90;;;;;;5070501;28;20194;-79
2023/04/12 07:45:15;;;;;;;3.53;1.47;;;9.10;99.90;;;;;;5069192;28;20179;-78
2023/04/12 07:47:41;;;;;;;1.87;1.20;;;9.10;99.90;;;;;;5072275;28;20203;-78
2023/04/12 07:50:07;;;;;;;3.10;1.77;;;9.20;99.90;;;;;;5071818;28;20222;-78
2023/04/12 07:52:33;;;;;;;1.97;1.20;;;9.20;99.90;;;;;;5063496;28;20566;-78
2023/04/12 07:54:58;;;;;;;3.33;1.30;;;9.20;99.90;;;;;;5059503;28;20262;-78
2023/04/12 07:57:25;;;;;;;2.20;1.30;;;9.20;99.90;;;;;;5058429;28;20179;-78
2023/04/12 07:59:50;;;;;;;1.73;1.30;;;9.10;99.90;;;;;;5060308;28;20171;-78
2023/04/12 08:02:23;;;;;;;5.10;1.20;;;9.20;99.90;;;;;;5059328;28;20195;-78
2023/04/12 08:04:53;;;;;;;1.13;1.03;;;9.20;99.90;;;;;;5058517;28;20171;-78
2023/04/12 08:07:20;;;;;;;2.00;1.20;;;9.20;99.90;;;;;;5059592;28;20294;-78
2023/04/12 08:09:46;;;;;;;2.70;1.23;;;9.20;99.90;;;;;;5059322;28;20239;-80
2023/04/12 08:12:12;;;;;;;2.60;1.20;;;9.20;99.90;;;;;;5059025;28;20686;-80
2023/04/12 08:14:38;;;;;;;2.80;1.50;;;9.20;99.90;;;;;;5059986;28;20198;-79
2023/04/12 08:17:03;;;;;;;3.97;1.77;;;9.20;99.90;;;;;;5060293;28;20253;-80
2023/04/12 08:19:29;;;;;;;1.90;1.27;;;9.30;99.90;;;;;;5058484;28;20622;-79
2023/04/12 08:21:55;;;;;;;1.93;1.50;;;9.30;99.90;;;;;;5059685;28;20666;-79
2023/04/12 08:24:21;;;;;;;1.20;1.10;;;9.40;99.90;;;;;;5059751;28;20192;-80
2023/04/12 08:26:46;;;;;;;1.73;1.10;;;9.30;99.90;;;;;;5059643;28;20573;-80
2023/04/12 08:29:12;;;;;;;2.13;1.40;;;9.30;99.90;;;;;;5059911;28;20172;-80
2023/04/12 08:31:38;;;;;;;1.27;1.07;;;9.40;99.90;;;;;;5058104;28;20241;-79
2023/04/12 08:34:04;;;;;;;1.87;1.20;;;9.40;99.90;;;;;;5059917;28;20267;-79
2023/04/12 08:36:29;;;;;;;1.57;1.33;;;9.40;99.90;;;;;;5059436;28;20709;-78
2023/04/12 08:38:59;;;;;;;1.93;1.30;;;9.50;99.90;;;;;;5057759;28;20179;-80
2023/04/12 08:41:25;;;;;;;3.07;1.40;;;9.50;99.90;;;;;;5058843;28;20182;-79
2023/04/12 08:43:51;;;;;;;2.90;1.50;;;9.50;99.90;;;;;;5057381;28;20203;-78
2023/04/12 08:46:17;;;;;;;3.97;1.50;;;9.50;99.90;;;;;;5059555;28;20297;-79
2023/04/12 08:48:48;;;;;;;1.70;1.40;;;9.50;99.90;;;;;;5059641;28;20206;-80
2023/04/12 08:51:18;;;;;;;1.50;1.30;;;9.50;99.90;;;;;;5059807;28;20176;-79
2023/04/12 08:53:44;;;;;;;1.40;1.13;;;9.50;99.90;;;;;;5058766;28;20192;-79
2023/04/12 08:56:11;;;;;;;3.07;1.40;;;9.60;99.90;;;;;;5059460;28;20322;-79
2023/04/12 08:58:43;;;;;;;1.30;1.10;;;9.60;99.90;;;;;;5060104;28;20180;-79
2023/04/12 09:01:13;;;;;;;3.70;1.30;;;9.60;99.90;;;;;;5061062;28;20176;-79
2023/04/12 09:03:39;;;;;;;2.30;1.47;;;9.60;99.90;;;;;;5059967;28;20214;-79
2023/04/12 09:06:05;;;;;;;2.87;1.47;;;9.70;99.90;;;;;;5063452;28;20251;-79
2023/04/12 09:08:31;;;;;;;1.70;1.60;;;9.70;99.90;;;;;;5069585;28;20207;-79
2023/04/12 09:10:57;;;;;;;2.57;1.40;;;9.70;99.90;;;;;;5069944;28;20244;-79
2023/04/12 09:13:33;;;;;;;2.73;1.60;;;9.70;99.90;;;;;;5059204;28;20187;-79
2023/04/12 09:15:59;;;;;;;4.13;1.50;;;9.80;99.90;;;;;;5058632;28;20233;-79
2023/04/12 09:18:26;;;;;;;3.20;1.80;;;9.80;99.90;;;;;;5057117;28;20183;-79
2023/04/12 09:21:07;;;;;;;2.57;1.63;;;9.80;99.90;;;;;;5058237;28;20717;-79
2023/04/12 09:23:34;;;;;;;2.83;1.70;;;9.90;99.90;;;;;;5058416;28;20195;-79
2023/04/12 09:26:00;;;;;;;3.53;1.80;;;9.90;99.90;;;;;;5057094;28;20171;-79
2023/04/12 09:28:27;;;;;;;1.93;1.60;;;10.00;99.90;;;;;;5057689;28;20256;-79
2023/04/12 09:30:54;;;;;;;5.00;2.30;;;10.00;99.90;;;;;;5057546;28;20255;-79
2023/04/12 09:33:36;;;;;;;7.97;2.43;;;10.00;99.90;;;;;;5057578;28;20202;-79
2023/04/12 09:36:13;;;;;;;3.47;2.00;;;10.00;99.90;;;;;;5064423;28;20645;-79
2023/04/12 09:38:40;;;;;;;3.20;2.40;;;10.10;99.90;;;;;;5064477;28;20586;-79
2023/04/12 09:41:18;;;;;;;3.00;2.43;;;10.20;99.90;;;;;;5062987;28;20175;-79
2023/04/12 09:43:44;;;;;;;4.50;2.33;;;10.20;99.90;;;;;;5063049;28;20202;-78
2023/04/12 09:46:13;;;;;;;3.80;2.40;;;10.30;99.90;;;;;;5063894;28;20179;-79
2023/04/12 09:48:40;;;;;;;5.50;2.30;;;10.30;99.90;;;;;;5064647;28;20202;-79
2023/04/12 09:51:06;;;;;;;3.07;2.40;;;10.40;99.90;;;;;;5064541;28;20194;-78
2023/04/12 09:53:39;;;;;;;2.30;2.10;;;10.70;99.90;;;;;;5063306;28;20202;-79
2023/04/12 09:56:07;;;;;;;2.50;2.30;;;10.40;99.90;;;;;;5064688;28;20159;-79
2023/04/12 09:58:35;;;;;;;2.97;2.50;;;10.40;99.90;;;;;;5064766;28;20231;-80
2023/04/12 10:01:02;;;;;;;5.57;2.20;;;10.50;99.90;;;;;;5063221;28;20186;-79
2023/04/12 10:03:28;;;;;;;2.80;1.93;;;10.50;99.90;;;;;;5063565;28;20191;-79
2023/04/12 10:05:54;;;;;;;3.57;2.50;;;10.50;99.90;;;;;;5063266;28;20648;-79
2023/04/12 10:08:22;;;;;;;3.03;2.03;;;10.60;99.90;;;;;;5064160;28;20624;-79
2023/04/12 10:10:48;;;;;;;2.33;1.90;;;10.60;99.90;;;;;;5064083;28;20203;-79
2023/04/12 10:13:16;;;;;;;1.40;1.30;;;10.60;99.90;;;;;;5064246;28;20552;-79
2023/04/12 10:15:44;;;;;;;1.63;1.17;;;10.70;99.90;;;;;;5064553;28;20635;-79
2023/04/12 10:18:10;;;;;;;1.90;1.30;;;10.70;99.90;;;;;;5063249;28;20278;-79
2023/04/12 10:20:40;;;;;;;1.40;1.20;;;10.80;99.90;;;;;;5063247;28;20760;-78
2023/04/12 10:23:08;;;;;;;1.70;1.30;;;10.80;99.90;;;;;;5063548;28;20493;-79
2023/04/12 10:25:33;;;;;;;1.53;1.43;;;10.90;99.90;;;;;;5063239;28;20182;-78
2023/04/12 10:28:20;;;;;;;3.00;1.23;;;11.10;99.90;;;;;;5062922;28;20199;-79
2023/04/12 10:30:48;;;;;;;2.10;1.60;;;11.10;99.90;;;;;;5062874;28;20179;-78
2023/04/12 10:33:17;;;;;;;1.70;1.57;;;11.10;99.90;;;;;;5062944;28;20215;-78
2023/04/12 10:36:11;;;;;;;1.57;1.23;;;11.30;99.90;;;;;;5061184;28;20194;-79
2023/04/12 10:38:47;;;;;;;3.07;1.63;;;11.40;99.90;;;;;;5061602;28;20191;-78
2023/04/12 10:41:16;;;;;;;2.27;1.40;;;11.40;99.90;;;;;;5061687;28;20175;-78
2023/04/12 10:43:46;;;;;;;2.67;1.33;;;11.40;99.90;;;;;;5063806;28;20313;-79
2023/04/12 10:46:37;;;;;;;2.57;1.10;;;11.30;99.90;;;;;;5060435;28;20168;-79
2023/04/12 10:49:10;;;;;;;1.67;1.30;;;11.30;99.90;;;;;;5060514;28;20269;-79
2023/04/12 10:51:36;;;;;;;2.97;1.50;;;11.30;99.90;;;;;;5058800;28;20176;-79
2023/04/12 10:54:08;;;;;;;3.40;1.40;;;11.20;99.90;;;;;;5060278;28;20254;-79
2023/04/12 10:56:38;;;;;;;2.97;1.13;;;10.90;99.90;;;;;;5057981;28;20172;-78
2023/04/12 10:59:08;;;;;;;2.07;0.97;;;10.70;99.90;;;;;;5059975;28;20267;-78
2023/04/12 11:01:35;;;;;;;3.47;1.07;;;10.60;99.90;;;;;;5060452;28;20164;-79
2023/04/12 11:04:15;;;;;;;5.57;1.60;;;10.50;99.90;;;;;;5060011;28;20214;-78
2023/04/12 11:06:55;;;;;;;8.00;1.20;;;10.50;99.90;;;;;;5059695;28;20164;-79
2023/04/12 11:09:36;;;;;;;8.03;1.60;;;10.60;99.90;;;;;;5060017;28;20167;-78
2023/04/12 11:12:07;;;;;;;5.83;1.50;;;10.40;99.90;;;;;;5058780;28;20195;-79
2023/04/12 11:14:44;;;;;;;4.73;1.40;;;10.30;99.90;;;;;;5058707;28;20241;-79
2023/04/12 11:17:13;;;;;;;5.57;1.37;;;10.30;99.90;;;;;;5059542;28;20160;-79
2023/04/12 11:19:54;;;;;;;6.67;1.23;;;10.30;99.90;;;;;;5058189;28;20179;-78
2023/04/12 11:22:22;;;;;;;4.37;1.20;;;10.40;99.90;;;;;;5058827;28;20752;-79
2023/04/12 11:24:53;;;;;;;7.10;1.67;;;10.40;99.90;;;;;;5060190;28;20167;-79
2023/04/12 11:27:24;;;;;;;8.83;1.50;;;10.50;99.90;;;;;;5060025;28;20194;-78
2023/04/12 11:29:54;;;;;;;5.13;1.30;;;10.60;99.90;;;;;;5059862;28;20301;-79
2023/04/12 11:32:22;;;;;;;6.83;1.63;;;10.60;99.90;;;;;;5058285;28;20264;-79
2023/04/12 11:34:48;;;;;;;6.17;1.80;;;10.70;99.90;;;;;;5060631;28;20633;-79
2023/04/12 11:37:16;;;;;;;6.10;2.00;;;10.80;99.90;;;;;;5060660;28;20193;-80
2023/04/12 11:39:44;;;;;;;8.40;2.60;;;10.90;99.90;;;;;;5060277;28;20175;-79
2023/04/12 11:42:18;;;;;;;7.83;2.40;;;11.10;99.90;;;;;;5058227;28;20651;-79
2023/04/12 11:44:44;;;;;;;5.83;2.40;;;11.10;99.90;;;;;;5059747;28;20174;-79
2023/04/12 11:47:15;;;;;;;8.47;3.20;;;11.20;99.90;;;;;;5058628;28;20249;-79
2023/04/12 11:49:49;;;;;;;10.43;3.07;;;11.20;1.00;;;;;;5059179;28;20172;-78
2023/04/12 11:52:17;;;;;;;8.03;2.73;;;11.40;1.00;;;;;;5059178;28;20171;-79
2023/04/12 11:54:47;;;;;;;10.10;1.97;;;11.50;1.00;;;;;;5060353;28;20535;-79
2023/04/12 11:57:17;;;;;;;5.40;1.87;;;11.60;1.00;;;;;;5059778;28;20171;-79
2023/04/12 11:59:47;;;;;;;5.63;1.57;;;11.60;99.90;;;;;;5058847;28;20245;-79
2023/04/12 12:02:15;;;;;;;3.17;1.33;;;11.80;1.00;;;;;;5059639;28;20175;-79
2023/04/12 12:04:45;;;;;;;5.03;1.97;;;11.80;1.00;;;;;;5060514;28;20693;-79
2023/04/12 12:07:15;;;;;;;6.13;1.57;;;12.00;1.00;;;;;;5059672;28;20199;-79
2023/04/12 12:09:42;;;;;;;4.50;1.80;;;12.10;99.90;;;;;;5059995;28;20164;-79
2023/04/12 12:12:12;;;;;;;8.17;1.60;;;12.40;21.20;;;;;;5058935;28;20228;-79
2023/04/12 12:14:38;;;;;;;5.97;1.50;;;12.20;99.90;;;;;;5060421;28;20164;-79
2023/04/12 12:17:13;;;;;;;6.67;1.23;;;12.20;1.00;;;;;;5059122;28;20183;-78
2023/04/12 12:19:44;;;;;;;5.03;1.40;;;12.30;41.40;;;;;;5059963;28;20701;-79
2023/04/12 12:22:20;;;;;;;4.93;1.03;;;12.30;1.00;;;;;;5061447;28;20168;-79
2023/04/12 12:25:00;;;;;;;7.23;1.93;;;12.40;7.80;;;;;;5072855;28;20170;-78
2023/04/12 12:27:36;;;;;;;6.47;1.30;;;12.30;99.90;;;;;;5072096;28;20209;-78
2023/04/12 12:30:03;;;;;;;7.90;1.60;;;12.40;1.00;;;;;;5058668;28;20262;-77
2023/04/12 12:32:37;;;;;;;6.70;1.53;;;12.50;99.90;;;;;;5059626;28;20246;-79
2023/04/12 12:35:10;;;;;;;7.50;2.47;;;12.60;99.90;;;;;;5060346;28;20604;-79
2023/04/12 12:37:36;;;;;;;5.00;1.70;;;12.70;1.00;;;;;;5059468;28;20225;-79
2023/04/12 12:40:20;;;;;;;4.83;1.47;;;12.70;99.90;;;;;;5059857;28;20663;-79
2023/04/12 12:42:53;;;;;;;7.57;1.73;;;12.80;47.40;;;;;;5060182;28;20192;-78
2023/04/12 12:45:20;;;;;;;4.07;1.97;;;12.70;99.90;;;;;;5060249;28;20170;-79
2023/04/12 12:48:00;;;;;;;7.00;1.80;;;12.80;37.10;;;;;;5058309;28;20200;-78
2023/04/12 12:50:28;;;;;;;6.13;1.83;;;12.80;1.00;;;;;;5060637;28;20219;-80
2023/04/12 12:52:54;;;;;;;7.03;1.70;;;12.90;99.90;;;;;;5058465;28;20191;-79
2023/04/12 12:55:22;;;;;;;2.70;1.40;;;12.70;99.90;;;;;;5058173;28;20172;-80
2023/04/12 12:57:50;;;;;;;7.97;1.80;;;12.70;99.90;;;;;;5058995;28;20183;-79
2023/04/12 13:00:16;;;;;;;6.63;1.70;;;12.70;99.90;;;;;;5060241;28;20205;-78